Time;durP1;ratioP1;P1;durP2;ratioP2;P2;SDS_P1;SDS_P2;PMS_P1;PMS_P2;Temp;Humidity;BMP_temperature;BMP_pressure;BME280_temperature;BME280_humidity;BME280_pressure;Samples;Min_cycle;Max_cycle;Signal;HPM_P1;HPM_P2
2022/05/08 00:02:25;;;;;;;8.13;4.82;;;;;;;14.66;64.12;102535.91;5115967;28;20035;-64
2022/05/08 00:04:51;;;;;;;8.68;4.90;;;;;;;14.62;64.50;102526.97;5116168;28;20031;-63
2022/05/08 00:07:21;;;;;;;13.85;5.32;;;;;;;14.62;64.79;102532.28;5116313;28;20101;-63
2022/05/08 00:09:48;;;;;;;8.05;4.90;;;;;;;14.55;64.47;102519.72;5116075;28;20062;-63
2022/05/08 00:12:15;;;;;;;8.63;4.68;;;;;;;14.68;64.20;102532.41;5115879;28;20028;-63
2022/05/08 00:14:41;;;;;;;9.80;5.18;;;;;;;14.70;64.12;102529.78;5116033;28;20020;-63
2022/05/08 00:17:07;;;;;;;10.70;4.88;;;;;;;14.79;64.14;102535.31;5115846;28;20034;-63
2022/05/08 00:19:32;;;;;;;11.88;5.20;;;;;;;14.84;64.12;102528.28;5116145;28;20167;-63
2022/05/08 00:21:57;;;;;;;12.85;5.22;;;;;;;14.80;64.31;102526.44;5115772;28;20032;-63
2022/05/08 00:24:23;;;;;;;10.73;5.13;;;;;;;14.74;64.84;102524.56;5115817;28;20024;-63
2022/05/08 00:26:49;;;;;;;10.13;4.93;;;;;;;14.70;64.74;102517.38;5114687;28;20035;-63
2022/05/08 00:29:15;;;;;;;8.90;4.70;;;;;;;14.69;64.67;102522.69;5115696;28;20487;-63
2022/05/08 00:31:41;;;;;;;9.20;5.10;;;;;;;14.68;64.60;102526.19;5115704;28;20011;-63
2022/05/08 00:34:07;;;;;;;10.57;4.75;;;;;;;14.66;64.92;102517.28;5115765;28;20023;-63
2022/05/08 00:36:33;;;;;;;9.85;5.00;;;;;;;14.60;64.96;102519.81;5115530;28;20110;-63
2022/05/08 00:38:58;;;;;;;9.10;5.50;;;;;;;14.60;65.41;102523.34;5115531;28;20400;-63
2022/05/08 00:41:24;;;;;;;10.35;5.03;;;;;;;14.48;65.33;102518.69;5115477;28;20046;-63
2022/05/08 00:43:49;;;;;;;7.70;4.80;;;;;;;14.51;65.06;102525.81;5115441;28;20069;-63
2022/05/08 00:46:16;;;;;;;8.73;5.07;;;;;;;14.49;65.62;102523.16;5115355;28;20384;-63
2022/05/08 00:48:42;;;;;;;11.60;5.00;;;;;;;14.49;65.47;102527.56;5096920;28;20110;-63
2022/05/08 00:51:09;;;;;;;13.38;5.15;;;;;;;14.39;66.10;102522.88;5115456;28;20027;-63
2022/05/08 00:53:38;;;;;;;11.57;5.30;;;;;;;14.44;65.98;102537.19;5115137;28;20071;-63
2022/05/08 00:56:06;;;;;;;10.15;5.40;;;;;;;14.43;65.97;102530.97;5115152;28;20037;-63
2022/05/08 00:58:33;;;;;;;11.48;5.78;;;;;;;14.41;66.54;102538.00;5115371;28;20038;-63
2022/05/08 01:00:59;;;;;;;11.07;5.68;;;;;;;14.37;66.04;102535.25;5115030;28;20031;-63
2022/05/08 01:03:25;;;;;;;11.23;5.65;;;;;;;14.31;66.00;102535.13;5114872;28;20034;-63
2022/05/08 01:05:53;;;;;;;10.45;5.82;;;;;;;14.30;66.25;102542.16;5115236;28;20020;-63
2022/05/08 01:08:21;;;;;;;13.80;6.13;;;;;;;14.24;65.96;102539.38;5115233;28;20035;-63
2022/05/08 01:10:47;;;;;;;12.25;6.20;;;;;;;14.14;66.23;102537.41;5114989;28;20377;-63
2022/05/08 01:13:12;;;;;;;12.20;6.60;;;;;;;14.11;66.31;102542.63;5114944;28;20019;-63
2022/05/08 01:15:46;;;;;;;12.35;6.50;;;;;;;14.02;66.73;102538.88;5114994;28;20027;-63
2022/05/08 01:18:12;;;;;;;12.43;6.65;;;;;;;13.97;66.77;102539.66;5114968;28;20435;-63
2022/05/08 01:20:42;;;;;;;15.57;7.18;;;;;;;13.88;67.04;102545.66;5114661;28;20027;-63
2022/05/08 01:23:10;;;;;;;12.23;6.68;;;;;;;13.89;66.72;102538.56;5114627;28;20023;-63
2022/05/08 01:25:45;;;;;;;13.35;6.70;;;;;;;13.88;67.21;102543.00;5114574;28;20064;-63
2022/05/08 01:28:12;;;;;;;9.55;6.72;;;;;;;13.80;67.16;102541.00;5114617;28;20023;-63
2022/05/08 01:30:42;;;;;;;11.82;6.95;;;;;;;13.88;67.32;102545.66;5115517;28;20098;-63
2022/05/08 01:33:09;;;;;;;11.45;6.93;;;;;;;13.92;66.65;102541.31;5116115;28;20052;-63
2022/05/08 01:35:36;;;;;;;13.32;6.95;;;;;;;13.88;66.87;102537.66;5118487;28;20035;-63
2022/05/08 01:38:06;;;;;;;12.25;6.70;;;;;;;13.88;66.64;102537.66;5116541;28;20015;-63
2022/05/08 01:40:31;;;;;;;12.30;6.85;;;;;;;13.88;66.81;102555.38;5114351;28;20498;-63
2022/05/08 01:42:58;;;;;;;15.07;7.13;;;;;;;13.80;66.88;102552.53;5114280;28;20094;-63
2022/05/08 01:45:24;;;;;;;16.30;6.95;;;;;;;13.69;67.29;102557.56;5114190;28;20019;-63
2022/05/08 01:50:35;;;;;;;12.65;6.63;;;;;;;13.72;67.30;102564.72;5114382;28;20388;-63
2022/05/08 01:53:01;;;;;;;11.75;6.93;;;;;;;13.72;67.05;102562.06;5092249;28;20040;-63
2022/05/08 01:55:26;;;;;;;12.82;6.68;;;;;;;13.72;66.95;102567.38;5093772;28;20126;-63
2022/05/08 01:57:53;;;;;;;16.27;7.03;;;;;;;13.76;67.58;102559.53;5093741;28;20078;-64
2022/05/08 02:00:19;;;;;;;10.73;6.90;;;;;;;13.64;66.95;102551.22;5093765;28;20065;-63
2022/05/08 02:02:48;;;;;;;13.98;7.20;;;;;;;13.65;66.71;102555.69;5093726;28;20051;-63
2022/05/08 02:05:15;;;;;;;12.50;6.80;;;;;;;13.62;67.03;102560.94;5093640;28;20024;-63
2022/05/08 02:07:43;;;;;;;13.35;7.00;;;;;;;13.66;67.06;102559.22;5093407;28;20117;-63
2022/05/08 02:10:08;;;;;;;13.60;7.20;;;;;;;13.62;66.99;102554.69;5093428;28;20031;-63
2022/05/08 02:12:34;;;;;;;13.27;7.38;;;;;;;13.56;67.08;102560.75;5093392;28;20025;-64
2022/05/08 02:14:59;;;;;;;11.80;6.90;;;;;;;13.55;67.56;102566.94;5093419;28;20040;-63
2022/05/08 02:17:25;;;;;;;11.35;7.15;;;;;;;13.47;68.00;102572.03;5093355;28;20016;-63
2022/05/08 02:19:50;;;;;;;12.55;6.90;;;;;;;13.53;67.70;102574.88;5093662;28;20020;-63
2022/05/08 02:22:19;;;;;;;14.05;7.70;;;;;;;13.48;68.08;102580.91;5093593;28;20032;-63
2022/05/08 02:24:44;;;;;;;15.48;7.53;;;;;;;13.46;67.85;102580.88;5093439;28;20032;-63
2022/05/08 02:27:09;;;;;;;15.27;7.25;;;;;;;13.58;67.65;102579.41;5093555;28;20024;-63
2022/05/08 02:29:35;;;;;;;14.52;7.22;;;;;;;13.51;67.22;102573.03;5093175;28;20091;-63
2022/05/08 02:32:01;;;;;;;14.43;7.70;;;;;;;13.52;67.41;102577.47;5093179;28;20119;-63
2022/05/08 02:34:27;;;;;;;13.20;7.50;;;;;;;13.40;67.29;102572.72;5093205;28;20063;-63
2022/05/08 02:36:52;;;;;;;12.63;6.97;;;;;;;13.44;67.96;102584.34;5093171;28;20020;-63
2022/05/08 02:39:17;;;;;;;13.13;8.07;;;;;;;13.38;67.28;102577.09;5093351;28;20055;-63
2022/05/08 02:41:43;;;;;;;12.98;7.90;;;;;;;13.37;66.84;102575.31;5093282;28;20454;-63
2022/05/08 02:44:08;;;;;;;14.20;7.40;;;;;;;13.40;67.33;102577.13;5093033;28;20499;-63
2022/05/08 02:46:33;;;;;;;13.60;7.35;;;;;;;13.38;66.89;102584.19;5093116;28;20016;-63
2022/05/08 02:48:59;;;;;;;17.15;7.97;;;;;;;13.24;66.99;102575.84;5093977;28;20426;-63
2022/05/08 02:51:24;;;;;;;12.90;7.30;;;;;;;13.31;66.97;102587.50;5097169;28;20542;-63
2022/05/08 02:53:51;;;;;;;14.65;7.72;;;;;;;13.27;66.88;102578.56;5111946;28;20047;-62
2022/05/08 02:59:00;;;;;;;15.30;7.30;;;;;;;13.21;67.11;102591.66;5117394;28;20039;-63
2022/05/08 03:01:26;;;;;;;16.27;8.43;;;;;;;13.27;67.47;102587.47;5117703;28;20027;-62
2022/05/08 03:03:51;;;;;;;12.95;7.30;;;;;;;13.32;67.11;102579.63;5117432;28;20028;-63
2022/05/08 03:06:16;;;;;;;12.70;7.70;;;;;;;13.25;66.92;102575.88;5117248;28;20049;-62
2022/05/08 03:08:43;;;;;;;14.82;7.57;;;;;;;13.32;66.54;102584.94;5117191;28;20419;-63
2022/05/08 03:11:26;;;;;;;12.52;7.45;;;;;;;13.32;66.61;102590.25;5117147;28;20023;-62
2022/05/08 03:13:54;;;;;;;18.00;8.48;;;;;;;13.31;66.63;102585.75;5117317;28;20116;-63
2022/05/08 03:16:19;;;;;;;16.00;7.70;;;;;;;13.38;66.66;102585.06;5117291;28;20120;-63
2022/05/08 03:18:45;;;;;;;12.48;7.78;;;;;;;13.29;66.48;102587.50;5117104;28;20503;-63
2022/05/08 03:21:13;;;;;;;15.30;7.55;;;;;;;13.30;66.29;102583.97;5117227;28;20112;-63
2022/05/08 03:23:39;;;;;;;15.27;6.75;;;;;;;13.22;65.65;102575.78;5116999;28;20024;-62
2022/05/08 03:26:05;;;;;;;14.75;6.43;;;;;;;13.27;64.78;102584.81;5116852;28;20031;-64
2022/05/08 03:28:31;;;;;;;14.85;6.07;;;;;;;13.15;64.22;102592.38;5117040;28;20059;-63
2022/05/08 03:30:59;;;;;;;14.02;6.00;;;;;;;13.04;62.80;102586.75;5116637;28;20066;-62
2022/05/08 03:33:28;;;;;;;15.35;5.93;;;;;;;13.05;63.05;102579.69;5116786;28;20027;-63
2022/05/08 03:35:54;;;;;;;14.52;5.55;;;;;;;12.97;63.20;102587.44;5116773;28;20110;-62
2022/05/08 03:38:21;;;;;;;16.83;5.55;;;;;;;12.83;62.10;102594.09;5116995;28;20372;-62
2022/05/08 03:40:46;;;;;;;19.58;5.90;;;;;;;12.74;62.86;102591.19;5116516;28;20039;-63
2022/05/08 03:43:12;;;;;;;15.25;5.53;;;;;;;12.68;62.85;102596.31;5116410;28;20545;-63
2022/05/08 03:45:37;;;;;;;14.65;5.38;;;;;;;12.62;63.41;102585.50;5116508;28;20112;-63
2022/05/08 03:48:08;;;;;;;19.30;5.63;;;;;;;12.56;63.11;102585.31;5116460;28;20103;-62
2022/05/08 03:50:33;;;;;;;16.60;5.80;;;;;;;12.56;63.74;102595.94;5116429;28;20362;-63
2022/05/08 03:53:01;;;;;;;15.30;5.47;;;;;;;12.52;62.76;102595.81;5116203;28;20050;-62
2022/05/08 03:55:27;;;;;;;21.05;5.70;;;;;;;12.55;62.85;102587.09;5116419;28;20032;-63
2022/05/08 03:57:52;;;;;;;17.02;5.40;;;;;;;12.41;63.26;102581.31;5116285;28;20023;-62
2022/05/08 04:00:18;;;;;;;17.33;5.13;;;;;;;12.44;63.73;102586.75;5116168;28;20359;-62
2022/05/08 04:02:44;;;;;;;17.17;5.40;;;;;;;12.43;63.07;102589.34;5116373;28;20455;-62
2022/05/08 04:05:11;;;;;;;23.75;5.53;;;;;;;12.35;63.28;102594.41;5115989;28;20099;-62
2022/05/08 04:07:40;;;;;;;20.00;5.20;;;;;;;12.35;63.70;102591.75;5115870;28;20030;-62
2022/05/08 04:10:07;;;;;;;17.98;5.10;;;;;;;12.47;63.35;102593.91;5115842;28;20055;-62
2022/05/08 04:12:35;;;;;;;17.67;5.88;;;;;;;12.38;63.24;102589.22;5115567;28;20024;-63
2022/05/08 04:15:01;;;;;;;16.75;5.00;;;;;;;12.32;63.10;102604.00;5115605;28;20115;-62
2022/05/08 04:17:28;;;;;;;18.13;4.80;;;;;;;12.31;63.00;102607.53;5115224;28;20059;-62
2022/05/08 04:19:55;;;;;;;17.58;5.05;;;;;;;12.34;63.23;102612.94;5115329;28;20024;-62
2022/05/08 04:25:06;;;;;;;21.27;5.10;;;;;;;12.23;63.43;102609.91;5115079;28;20042;-62
2022/05/08 04:27:32;;;;;;;21.55;5.45;;;;;;;12.22;63.31;102610.78;5115034;28;20476;-62
2022/05/08 04:29:57;;;;;;;20.00;5.00;;;;;;;12.25;63.18;102617.09;5115301;28;20023;-62
2022/05/08 04:32:22;;;;;;;19.33;5.32;;;;;;;12.22;63.22;102616.06;5115054;28;20055;-62
2022/05/08 04:34:48;;;;;;;14.38;4.70;;;;;;;12.29;63.13;102618.09;5114967;28;20072;-62
2022/05/08 04:37:14;;;;;;;18.05;4.95;;;;;;;12.28;63.00;102608.31;5114809;28;20163;-62
2022/05/08 04:39:39;;;;;;;19.55;4.57;;;;;;;12.19;63.18;102610.66;5114731;28;20376;-63
2022/05/08 04:42:04;;;;;;;19.35;5.00;;;;;;;12.21;64.14;102622.22;5114898;28;20365;-62
2022/05/08 04:44:30;;;;;;;22.08;4.88;;;;;;;12.19;63.76;102619.50;5114817;28;20031;-62
2022/05/08 04:46:55;;;;;;;16.25;5.05;;;;;;;12.19;63.55;102616.88;5114900;28;20095;-62
2022/05/08 04:49:21;;;;;;;22.23;4.97;;;;;;;12.16;63.88;102626.47;5114792;28;20099;-62
2022/05/08 04:51:46;;;;;;;22.83;4.90;;;;;;;12.16;64.25;102631.75;5114554;28;20520;-63
2022/05/08 04:54:12;;;;;;;21.65;5.00;;;;;;;12.19;63.88;102626.56;5114354;28;20039;-62
2022/05/08 04:56:37;;;;;;;19.63;5.20;;;;;;;12.15;63.42;102628.22;5114943;28;20054;-63
2022/05/08 04:59:03;;;;;;;20.77;4.82;;;;;;;12.18;64.00;102635.38;5115341;28;20031;-63
2022/05/08 05:01:28;;;;;;;19.77;4.90;;;;;;;12.23;63.52;102634.66;5114869;28;20103;-62
2022/05/08 05:03:54;;;;;;;25.75;4.40;;;;;;;12.20;63.98;102637.22;5114681;28;20047;-62
2022/05/08 05:06:20;;;;;;;20.00;4.70;;;;;;;12.24;63.90;102644.41;5114373;28;20114;-62
2022/05/08 05:08:45;;;;;;;24.10;4.85;;;;;;;12.30;63.23;102637.53;5114411;28;20035;-62
2022/05/08 05:11:11;;;;;;;19.27;5.18;;;;;;;12.33;62.95;102646.47;5113806;28;20077;-62
2022/05/08 05:13:37;;;;;;;20.65;5.10;;;;;;;12.36;63.59;102645.66;5114008;28;20031;-62
2022/05/08 05:16:06;;;;;;;20.02;4.70;;;;;;;12.35;63.64;102651.84;5114182;28;20034;-62
2022/05/08 05:18:32;;;;;;;17.63;4.32;;;;;;;12.45;63.14;102653.91;5114544;28;20030;-62
2022/05/08 05:20:58;;;;;;;20.17;4.30;;;;;;;12.44;62.18;102658.31;5114009;28;20031;-62
2022/05/08 05:23:23;;;;;;;18.15;4.78;;;;;;;12.35;62.42;102659.78;5114073;28;20468;-62
2022/05/08 05:25:49;;;;;;;21.83;5.18;;;;;;;12.28;62.81;102658.66;5113851;28;20051;-63
2022/05/08 05:28:15;;;;;;;15.20;4.30;;;;;;;12.25;62.74;102659.50;5113929;28;20027;-62
2022/05/08 05:30:40;;;;;;;21.48;4.80;;;;;;;12.33;62.81;102662.38;5113835;28;20028;-62
2022/05/08 05:33:07;;;;;;;23.15;4.55;;;;;;;12.28;61.64;102666.63;5113951;28;20027;-62
2022/05/08 05:35:40;;;;;;;20.67;4.68;;;;;;;12.26;62.50;102668.34;5113985;28;20058;-62
2022/05/08 05:38:05;;;;;;;23.30;5.15;;;;;;;12.23;62.61;102676.19;5113744;28;20027;-63
2022/05/08 05:40:31;;;;;;;20.40;4.38;;;;;;;12.25;62.26;102669.19;5113666;28;20027;-62
2022/05/08 05:42:59;;;;;;;17.27;4.28;;;;;;;12.24;61.99;102672.66;5113456;28;20051;-62
2022/05/08 05:45:25;;;;;;;18.45;4.15;;;;;;;12.25;61.95;102679.78;5113744;28;20102;-62
2022/05/08 05:47:52;;;;;;;20.45;4.03;;;;;;;12.38;62.06;102692.59;5113542;28;20110;-62
2022/05/08 05:50:21;;;;;;;16.50;3.97;;;;;;;12.49;61.80;102690.28;5113636;28;20028;-62
2022/05/08 05:52:47;;;;;;;23.20;4.07;;;;;;;12.53;61.50;102689.53;5113188;28;20044;-62
2022/05/08 05:55:13;;;;;;;20.88;4.30;;;;;;;12.47;60.42;102687.59;5113360;28;20119;-63
2022/05/08 05:57:39;;;;;;;15.85;4.45;;;;;;;12.53;60.86;102690.44;5113252;28;20081;-62
2022/05/08 06:00:11;;;;;;;18.77;4.30;;;;;;;12.57;60.12;102695.84;5113464;28;20023;-62
2022/05/08 06:02:40;;;;;;;21.10;4.28;;;;;;;12.71;60.40;102705.13;5113699;28;20062;-62
2022/05/08 06:05:06;;;;;;;15.00;4.00;;;;;;;12.79;60.61;102695.66;5113673;28;20023;-62
2022/05/08 06:07:36;;;;;;;17.63;4.10;;;;;;;12.81;59.45;102714.31;5113260;28;20110;-62
2022/05/08 06:10:04;;;;;;;18.60;5.05;;;;;;;12.79;59.46;102707.19;5112960;28;20043;-63
2022/05/08 06:12:29;;;;;;;16.67;4.13;;;;;;;12.86;59.00;102716.25;5113167;28;20048;-62
2022/05/08 06:14:55;;;;;;;20.17;4.28;;;;;;;12.91;59.15;102714.63;5113310;28;20040;-62
2022/05/08 06:17:20;;;;;;;16.08;4.18;;;;;;;12.89;59.32;102713.69;5113229;28;20176;-62
2022/05/08 06:19:45;;;;;;;24.60;4.80;;;;;;;12.80;58.03;102713.38;5113118;28;20024;-62
2022/05/08 06:22:11;;;;;;;17.35;4.38;;;;;;;12.87;58.34;102711.84;5113232;28;20110;-62
2022/05/08 06:24:38;;;;;;;20.85;4.85;;;;;;;12.91;59.19;102722.59;5112083;28;20524;-63
2022/05/08 06:27:03;;;;;;;20.30;4.20;;;;;;;12.98;58.68;102724.59;5113143;28;20024;-62
2022/05/08 06:29:29;;;;;;;18.88;4.25;;;;;;;13.05;58.41;102720.34;5113095;28;20353;-62
2022/05/08 06:31:54;;;;;;;15.13;3.83;;;;;;;13.14;57.97;102725.03;5112906;28;20058;-62
2022/05/08 06:34:19;;;;;;;22.80;4.60;;;;;;;13.16;57.30;102716.28;5113382;28;20054;-62
2022/05/08 06:36:45;;;;;;;20.02;4.18;;;;;;;13.14;57.81;102711.75;5113657;28;20445;-62
2022/05/08 06:39:13;;;;;;;19.05;4.43;;;;;;;13.15;57.48;102733.06;5113473;28;20024;-62
2022/05/08 06:41:38;;;;;;;21.40;4.30;;;;;;;13.15;57.17;102733.06;5112931;28;20028;-63
2022/05/08 06:44:04;;;;;;;19.23;4.25;;;;;;;13.20;57.39;102735.84;5113026;28;20377;-62
2022/05/08 06:46:32;;;;;;;21.42;4.22;;;;;;;13.32;57.10;102728.31;5112844;28;20026;-62
2022/05/08 06:48:58;;;;;;;15.80;4.32;;;;;;;13.40;56.35;102736.47;5112890;28;20035;-62
2022/05/08 06:51:23;;;;;;;19.90;4.15;;;;;;;13.47;56.65;102728.72;5112698;28;20032;-62
2022/05/08 06:53:49;;;;;;;17.75;4.10;;;;;;;13.58;56.45;102733.47;5112755;28;20097;-62
2022/05/08 06:56:16;;;;;;;16.00;4.20;;;;;;;13.69;56.32;102739.97;5112641;28;20103;-63
2022/05/08 07:01:36;;;;;;;20.52;4.40;;;;;;;13.73;55.65;102736.53;5112733;28;20396;-62
2022/05/08 07:04:03;;;;;;;15.52;4.22;;;;;;;13.77;55.13;102739.31;5112793;28;20034;-62
2022/05/08 07:06:29;;;;;;;16.67;4.25;;;;;;;13.91;54.81;102737.03;5112658;28;20054;-62
2022/05/08 07:08:55;;;;;;;22.90;4.32;;;;;;;13.98;54.01;102738.13;5112353;28;20043;-62
2022/05/08 07:11:21;;;;;;;21.75;4.05;;;;;;;14.06;53.88;102743.66;5112664;28;20122;-62
2022/05/08 07:13:47;;;;;;;20.83;4.72;;;;;;;14.09;53.52;102743.72;5112525;28;20102;-62
2022/05/08 07:16:13;;;;;;;23.35;4.63;;;;;;;14.01;53.32;102746.19;5112788;28;20422;-62
2022/05/08 07:18:38;;;;;;;20.63;4.43;;;;;;;14.06;54.31;102755.19;5112484;28;20102;-62
2022/05/08 07:21:05;;;;;;;19.20;4.00;;;;;;;14.12;53.39;102746.47;5112665;28;20369;-62
2022/05/08 07:23:32;;;;;;;18.70;4.13;;;;;;;14.22;53.33;102743.22;5112318;28;20032;-62
2022/05/08 07:25:57;;;;;;;19.27;4.05;;;;;;;14.25;53.45;102745.91;5112721;28;20353;-62
2022/05/08 07:28:23;;;;;;;15.90;3.72;;;;;;;14.26;53.24;102753.03;5112555;28;20028;-62
2022/05/08 07:30:49;;;;;;;22.25;4.70;;;;;;;14.21;53.35;102749.34;5112415;28;20031;-62
2022/05/08 07:33:16;;;;;;;18.52;4.65;;;;;;;14.23;53.10;102747.66;5112547;28;20115;-62
2022/05/08 07:38:27;;;;;;;17.88;3.95;;;;;;;14.49;52.84;102749.25;5116392;28;20412;-62
2022/05/08 07:40:53;;;;;;;21.20;5.80;;;;;;;14.60;52.46;102751.25;5116106;28;20055;-62
2022/05/08 07:43:18;;;;;;;20.17;4.80;;;;;;;14.62;51.85;102760.19;5116185;28;20062;-62
2022/05/08 07:45:44;;;;;;;20.23;4.88;;;;;;;14.63;52.07;102767.31;5116108;28;20023;-62
2022/05/08 07:48:09;;;;;;;18.75;4.95;;;;;;;14.77;52.10;102753.50;5116020;28;20020;-62
2022/05/08 07:50:35;;;;;;;18.80;5.60;;;;;;;14.90;51.21;102762.69;5115921;28;20456;-62
2022/05/08 07:53:01;;;;;;;18.35;4.45;;;;;;;14.95;50.80;102765.44;5115627;28;20040;-62
2022/05/08 07:55:26;;;;;;;17.63;4.53;;;;;;;15.00;51.00;102767.34;5115929;28;20023;-62
2022/05/08 07:57:52;;;;;;;18.00;5.10;;;;;;;15.12;49.88;102772.06;5115847;28;20362;-62
2022/05/08 08:00:17;;;;;;;19.85;4.90;;;;;;;15.32;49.82;102769.81;5115926;28;20034;-62
2022/05/08 08:02:43;;;;;;;19.67;4.38;;;;;;;15.70;48.48;102777.78;5115643;28;20545;-63
2022/05/08 08:05:08;;;;;;;17.10;4.30;;;;;;;16.14;46.80;102761.72;5115778;28;20018;-62
2022/05/08 08:07:34;;;;;;;19.45;4.50;;;;;;;16.43;46.32;102779.16;5115517;28;20449;-62
2022/05/08 08:09:59;;;;;;;18.80;4.05;;;;;;;16.81;45.68;102768.25;5115530;28;20435;-63
2022/05/08 08:12:25;;;;;;;15.77;3.83;;;;;;;17.10;46.06;102773.16;5115570;28;20026;-62
2022/05/08 08:14:50;;;;;;;17.30;4.40;;;;;;;17.56;44.71;102765.75;5115530;28;20043;-62
2022/05/08 08:17:16;;;;;;;21.35;5.15;;;;;;;17.91;43.62;102759.09;5115674;28;20047;-62
2022/05/08 08:19:41;;;;;;;16.45;4.70;;;;;;;18.22;43.15;102767.44;5115535;28;20126;-62
2022/05/08 08:22:07;;;;;;;18.67;4.72;;;;;;;18.52;41.70;102773.06;5115382;28;20023;-62
2022/05/08 08:24:32;;;;;;;16.77;4.45;;;;;;;18.83;41.46;102770.66;5115139;28;20019;-63
2022/05/08 08:26:58;;;;;;;18.10;4.28;;;;;;;19.02;40.63;102780.63;5115554;28;20058;-62
2022/05/08 08:29:24;;;;;;;18.80;4.40;;;;;;;19.35;40.41;102770.97;5115088;28;20015;-62
2022/05/08 08:31:49;;;;;;;17.40;4.60;;;;;;;19.57;38.98;102772.00;5115274;28;20024;-62
2022/05/08 08:34:15;;;;;;;19.10;4.30;;;;;;;19.78;39.83;102773.88;5096766;28;20022;-62
2022/05/08 08:36:41;;;;;;;22.50;4.93;;;;;;;20.12;38.54;102774.88;5115071;28;20409;-62
2022/05/08 08:39:06;;;;;;;15.77;4.60;;;;;;;20.39;37.57;102768.66;5114886;28;20026;-62
2022/05/08 08:41:35;;;;;;;17.77;4.82;;;;;;;20.55;37.66;102766.00;5115029;28;20379;-62
2022/05/08 08:49:43;;;;;;;13.43;4.47;;;;;;;20.88;37.66;102768.66;5115015;28;20047;-63
2022/05/08 08:52:11;;;;;;;17.60;5.00;;;;;;;21.05;36.37;102757.88;5114912;28;20085;-63
2022/05/08 08:54:37;;;;;;;15.60;4.53;;;;;;;21.14;36.34;102765.03;5114594;28;20090;-62
2022/05/08 08:57:02;;;;;;;15.40;4.45;;;;;;;21.27;36.14;102759.59;5114904;28;20114;-62
2022/05/08 08:59:28;;;;;;;17.38;7.07;;;;;;;21.42;35.23;102769.47;5114773;28;20033;-63
2022/05/08 09:01:54;;;;;;;16.23;4.60;;;;;;;21.63;34.77;102765.81;5114713;28;20024;-62
2022/05/08 09:04:20;;;;;;;21.23;4.35;;;;;;;21.69;33.74;102768.44;5114447;28;20027;-63
2022/05/08 09:06:46;;;;;;;16.20;4.68;;;;;;;21.70;33.51;102761.25;5114328;28;20401;-62
2022/05/08 09:09:26;;;;;;;17.77;5.18;;;;;;;21.93;33.02;102770.13;5114552;28;20020;-62
2022/05/08 09:11:55;;;;;;;14.52;4.40;;;;;;;22.14;31.74;102761.06;5114581;28;20073;-62
2022/05/08 09:14:35;;;;;;;15.80;3.80;;;;;;;22.21;33.01;102754.69;5114497;28;20092;-62
2022/05/08 09:17:03;;;;;;;14.65;3.95;;;;;;;22.16;31.52;102766.41;5114446;28;20024;-63
2022/05/08 09:19:32;;;;;;;14.88;4.20;;;;;;;22.10;32.17;102770.03;5096168;28;20019;-63
2022/05/08 09:22:00;;;;;;;14.13;4.18;;;;;;;22.24;31.85;102765.47;5114441;28;20088;-62
2022/05/08 09:24:25;;;;;;;11.70;3.70;;;;;;;22.38;31.51;102751.88;5114364;28;20112;-63
2022/05/08 09:27:13;;;;;;;14.77;4.35;;;;;;;22.50;30.17;102759.88;5114245;28;20035;-62
2022/05/08 09:29:39;;;;;;;13.95;4.40;;;;;;;22.63;28.37;102766.03;5113930;28;20027;-63
2022/05/08 09:32:05;;;;;;;13.45;3.95;;;;;;;22.50;28.57;102758.97;5113910;28;20028;-63
2022/05/08 09:34:49;;;;;;;16.52;4.93;;;;;;;22.49;28.54;102757.19;5113978;28;20027;-62
2022/05/08 09:37:15;;;;;;;12.98;3.63;;;;;;;22.69;28.76;102751.59;5114027;28;20059;-62
2022/05/08 09:39:41;;;;;;;17.55;5.07;;;;;;;22.72;28.40;102754.28;5113986;28;20066;-62
2022/05/08 09:42:07;;;;;;;11.30;4.30;;;;;;;22.94;28.88;102755.88;5114121;28;20016;-63
2022/05/08 09:44:33;;;;;;;13.50;4.60;;;;;;;23.14;29.23;102755.69;5113972;28;20439;-62
2022/05/08 09:47:00;;;;;;;16.10;4.78;;;;;;;23.37;28.64;102758.09;5114028;28;20031;-62
2022/05/08 09:49:26;;;;;;;14.52;5.25;;;;;;;23.17;29.74;102757.47;5113752;28;20031;-62
2022/05/08 09:51:53;;;;;;;15.45;5.20;;;;;;;23.28;30.22;102750.13;5113911;28;20081;-62
2022/05/08 09:54:19;;;;;;;10.13;4.00;;;;;;;23.46;28.97;102759.78;5113277;28;20039;-62
2022/05/08 09:56:46;;;;;;;12.93;4.20;;;;;;;23.33;29.99;102753.66;5113649;28;20028;-63
2022/05/08 09:59:12;;;;;;;12.98;3.72;;;;;;;23.39;30.00;102759.00;5114038;28;20092;-62
2022/05/08 10:01:39;;;;;;;13.05;4.00;;;;;;;23.52;30.90;102750.75;5113752;28;20457;-62
2022/05/08 10:04:05;;;;;;;12.30;4.88;;;;;;;23.88;28.45;102749.38;5113687;28;20023;-62
2022/05/08 10:06:32;;;;;;;11.68;3.63;;;;;;;23.77;28.22;102754.03;5113694;28;20369;-62
2022/05/08 10:14:30;;;;;;;16.65;4.13;;;;;;;24.63;26.76;102741.00;5113843;28;20092;-62
2022/05/08 10:17:05;;;;;;;11.18;3.60;;;;;;;24.97;27.66;102733.16;5113275;28;20027;-62
2022/05/08 10:19:33;;;;;;;10.93;3.88;;;;;;;25.03;26.88;102734.84;5113345;28;20028;-62
2022/05/08 10:24:51;;;;;;;14.30;3.90;;;;;;;24.89;27.62;102735.13;5113692;28;20028;-62
2022/05/08 10:27:25;;;;;;;13.02;3.95;;;;;;;25.14;27.00;102726.56;5113291;28;20079;-62
2022/05/08 10:29:50;;;;;;;13.90;3.88;;;;;;;25.10;26.85;102722.13;5113256;28;20408;-63
2022/05/08 10:32:28;;;;;;;11.52;3.55;;;;;;;24.97;27.41;102727.75;5113000;28;20071;-63
2022/05/08 10:35:17;;;;;;;12.38;3.60;;;;;;;25.12;27.11;102723.88;5113288;28;20051;-63
2022/05/08 10:37:47;;;;;;;11.45;3.58;;;;;;;25.22;26.09;102721.84;5094754;28;20034;-63
2022/05/08 10:40:21;;;;;;;9.30;3.78;;;;;;;25.28;25.72;102716.34;5113032;28;20039;-62
2022/05/08 10:42:56;;;;;;;10.63;3.28;;;;;;;25.22;25.44;102719.16;5113112;28;20032;-62
2022/05/08 10:45:34;;;;;;;10.95;3.70;;;;;;;25.41;26.95;102720.56;5113208;28;20016;-63
2022/05/08 10:48:10;;;;;;;10.73;3.70;;;;;;;25.40;25.00;102707.97;5112944;28;20031;-62
2022/05/08 10:50:43;;;;;;;9.90;3.47;;;;;;;25.65;25.60;102710.09;5113106;28;20023;-62
2022/05/08 10:53:39;;;;;;;15.77;4.75;;;;;;;25.68;24.71;102708.22;5112804;28;20027;-62
2022/05/08 10:56:09;;;;;;;12.43;3.67;;;;;;;25.47;24.26;102711.41;5030429;28;20053;-62
2022/05/08 10:58:38;;;;;;;9.43;3.63;;;;;;;25.51;24.31;102705.00;5014081;28;20403;-63
2022/05/08 11:01:06;;;;;;;11.23;3.17;;;;;;;25.77;24.84;102711.69;5030435;28;20048;-62
2022/05/08 11:03:35;;;;;;;10.88;3.35;;;;;;;25.95;25.00;102704.03;5030152;28;20049;-62
2022/05/08 11:06:00;;;;;;;10.75;3.42;;;;;;;25.98;24.07;102703.03;5030300;28;20034;-63
2022/05/08 11:08:31;;;;;;;22.27;3.67;;;;;;;26.27;24.92;102701.44;5030301;28;20210;-63
2022/05/08 11:11:08;;;;;;;15.50;3.55;;;;;;;26.43;24.23;102706.44;5032679;28;20030;-63
2022/05/08 11:13:42;;;;;;;12.93;3.75;;;;;;;26.18;23.77;102711.59;5034037;28;20072;-63
2022/05/08 11:16:08;;;;;;;14.43;3.58;;;;;;;25.94;23.16;102704.94;5034160;28;20117;-63
2022/05/08 11:18:34;;;;;;;10.90;3.33;;;;;;;25.95;23.92;102706.75;5033978;28;20091;-62
2022/05/08 11:21:01;;;;;;;12.02;3.78;;;;;;;25.89;23.59;102705.97;5033727;28;20033;-62
2022/05/08 11:23:44;;;;;;;11.82;3.30;;;;;;;25.88;24.33;102710.50;5033907;28;20036;-63
2022/05/08 11:26:12;;;;;;;9.77;3.22;;;;;;;25.94;24.40;102704.03;5033959;28;20124;-63
2022/05/08 11:28:51;;;;;;;10.05;3.30;;;;;;;26.32;24.15;102699.50;5033645;28;20239;-63
2022/05/08 11:31:18;;;;;;;9.80;3.50;;;;;;;26.46;23.20;102692.81;5034671;28;20026;-64
2022/05/08 11:36:33;;;;;;;10.23;3.28;;;;;;;27.04;23.01;102695.75;5116329;28;20041;-61
2022/05/08 11:39:19;;;;;;;9.38;3.10;;;;;;;27.09;22.23;102696.53;5115906;28;20472;-61
2022/05/08 11:41:49;;;;;;;11.65;3.40;;;;;;;26.95;22.19;102691.47;5115834;28;20111;-61
2022/05/08 11:44:14;;;;;;;10.50;3.20;;;;;;;27.24;21.88;102692.50;5116070;28;20481;-61
2022/05/08 11:46:57;;;;;;;9.45;3.25;;;;;;;27.29;22.74;102685.09;5115840;28;20028;-61
2022/05/08 11:49:26;;;;;;;10.00;3.35;;;;;;;27.10;21.48;102682.03;5116068;28;20525;-61